Time;durP1;ratioP1;P1;durP2;ratioP2;P2;SDS_P1;SDS_P2;PMS_P1;PMS_P2;Temp;Humidity;BMP_temperature;BMP_pressure;BME280_temperature;BME280_humidity;BME280_pressure;Samples;Min_cycle;Max_cycle;Signal;HPM_P1;HPM_P2
2023/01/03 00:01:37;;;;;;;;;20.00;18.00;;;;;11.34;69.32;102231.22;4952317;28;45449;-76
2023/01/03 00:04:03;;;;;;;;;20.25;16.00;;;;;11.38;69.29;102245.47;4954231;28;45306;-76
2023/01/03 00:06:31;;;;;;;;;16.75;16.75;;;;;11.35;69.25;102238.34;4951970;28;45578;-76
2023/01/03 00:08:58;;;;;;;;;18.50;16.50;;;;;11.47;69.19;102258.72;4947437;28;45753;-77
2023/01/03 00:14:13;;;;;;;;;14.00;14.00;;;;;11.47;69.45;102272.09;4941283;28;45308;-76
2023/01/03 00:16:39;;;;;;;;;15.00;12.75;;;;;11.42;69.57;102269.44;4955177;28;47030;-77
2023/01/03 00:19:13;;;;;;;;;18.25;14.75;;;;;11.29;69.38;102251.78;4948776;28;45389;-77
2023/01/03 00:21:39;;;;;;;;;17.50;15.50;;;;;11.26;69.54;102252.72;4952677;28;45408;-76
2023/01/03 00:24:05;;;;;;;;;17.75;17.50;;;;;10.99;69.68;102205.78;4943410;28;45345;-76
2023/01/03 00:26:32;;;;;;;;;16.00;16.00;;;;;11.15;69.44;102237.72;4941512;28;45504;-76
2023/01/03 00:28:58;;;;;;;;;14.25;14.25;;;;;11.16;69.82;102247.47;4954267;28;45745;-76
2023/01/03 00:31:23;;;;;;;;;14.50;14.25;;;;;11.21;69.86;102240.28;4940558;28;45516;-77
2023/01/03 00:33:49;;;;;;;;;15.50;15.25;;;;;11.22;70.10;102234.94;4941023;28;45246;-76
2023/01/03 00:36:14;;;;;;;;;15.00;14.00;;;;;11.08;70.17;102220.84;4943878;28;46044;-76
2023/01/03 00:38:40;;;;;;;;;16.50;13.25;;;;;11.17;69.72;102227.88;4955744;28;45805;-77
2023/01/03 00:41:12;;;;;;;;;16.25;15.50;;;;;11.43;69.61;102262.34;4940632;28;45334;-77
2023/01/03 00:43:41;;;;;;;;;12.50;12.50;;;;;11.19;69.54;102226.06;4949449;28;45385;-77
2023/01/03 00:46:08;;;;;;;;;16.75;13.00;;;;;11.34;69.43;102257.97;4941110;28;46068;-77
2023/01/03 00:48:34;;;;;;;;;14.25;13.25;;;;;11.36;69.46;102261.53;4953450;28;45386;-76
2023/01/03 00:51:05;;;;;;;;;12.75;11.25;;;;;11.41;69.51;102265.03;4941985;28;45630;-76
2023/01/03 00:53:30;;;;;;;;;13.00;13.00;;;;;11.32;69.19;102249.94;4940573;28;45448;-77
2023/01/03 00:56:01;;;;;;;;;16.75;14.75;;;;;11.33;69.35;102242.84;4940368;28;46256;-77
2023/01/03 00:58:29;;;;;;;;;12.75;12.75;;;;;11.21;69.58;102224.25;4955300;28;45423;-77
2023/01/03 01:00:55;;;;;;;;;15.00;12.00;;;;;11.36;69.43;102250.84;4954926;28;45325;-77
2023/01/03 01:03:20;;;;;;;;;14.25;11.00;;;;;11.30;69.29;102242.88;4955156;28;45468;-77
2023/01/03 01:05:45;;;;;;;;;14.50;13.25;;;;;11.18;69.30;102221.63;4954045;28;45429;-77
2023/01/03 01:08:11;;;;;;;;;17.00;14.50;;;;;11.21;69.78;102230.50;4946445;28;45399;-77
2023/01/03 01:11:00;;;;;;;;;16.50;14.75;;;;;11.40;69.24;102255.22;4963359;28;45412;-77
2023/01/03 01:13:29;;;;;;;;;14.25;13.00;;;;;11.23;69.58;102226.03;4958233;28;45406;-77
2023/01/03 01:15:59;;;;;;;;;12.50;11.00;;;;;11.38;69.17;102251.69;4948636;28;47888;-77
2023/01/03 01:18:24;;;;;;;;;13.25;12.50;;;;;11.42;69.29;102253.41;4942028;28;45369;-77
2023/01/03 01:20:49;;;;;;;;;15.75;14.25;;;;;11.19;69.19;102226.94;4955067;28;45386;-77
2023/01/03 01:23:15;;;;;;;;;13.25;12.25;;;;;11.22;68.79;102232.25;4940123;28;45452;-76
2023/01/03 01:25:40;;;;;;;;;15.50;14.25;;;;;11.19;68.92;102224.25;4943306;28;45403;-77
2023/01/03 01:28:05;;;;;;;;;15.25;13.00;;;;;11.22;69.43;102231.38;4944589;28;45437;-77
2023/01/03 01:30:31;;;;;;;;;12.75;11.50;;;;;11.42;68.94;102265.91;4940096;28;45380;-76
2023/01/03 01:32:56;;;;;;;;;19.00;14.50;;;;;11.20;69.34;102242.09;4942689;28;46267;-77
2023/01/03 01:35:21;;;;;;;;;15.25;13.75;;;;;11.08;69.02;102243.09;4958328;28;46274;-77
2023/01/03 01:37:47;;;;;;;;;12.25;12.00;;;;;11.14;69.30;102244.81;4942217;28;45386;-77
2023/01/03 01:40:12;;;;;;;;;15.50;13.25;;;;;11.19;69.10;102260.81;4954804;28;45489;-77
2023/01/03 01:45:21;;;;;;;;;12.25;10.75;;;;;11.13;69.07;102246.59;4939836;28;45524;-77
2023/01/03 01:48:00;;;;;;;;;11.75;11.75;;;;;11.06;69.39;102242.25;4945278;28;45394;-77
2023/01/03 01:50:45;;;;;;;;;11.75;11.75;;;;;11.33;69.14;102293.63;4945764;28;45269;-77
2023/01/03 01:53:28;;;;;;;;;12.25;9.00;;;;;11.26;69.35;102266.09;4945226;28;45504;-77
2023/01/03 01:56:16;;;;;;;;;15.75;12.00;;;;;11.32;69.43;102276.69;4956598;28;47138;-77
2023/01/03 01:58:44;;;;;;;;;12.25;10.75;;;;;11.04;69.23;102241.38;4944015;28;45614;-77
2023/01/03 02:01:12;;;;;;;;;11.50;10.25;;;;;11.31;69.52;102287.44;4954404;28;45440;-77
2023/01/03 02:03:40;;;;;;;;;16.25;13.00;;;;;11.23;69.33;102287.50;4954501;28;45520;-77
2023/01/03 02:06:08;;;;;;;;;9.75;9.75;;;;;11.10;69.41;102264.47;4948521;28;45511;-77
2023/01/03 02:08:33;;;;;;;;;11.50;11.25;;;;;11.16;69.49;102269.75;4947899;28;45591;-77
2023/01/03 02:11:02;;;;;;;;;12.50;11.50;;;;;11.30;69.23;102293.66;4952382;28;45665;-77
2023/01/03 02:13:45;;;;;;;;;12.25;10.50;;;;;11.06;69.50;102258.28;4942869;28;45553;-77
2023/01/03 02:16:22;;;;;;;;;11.75;10.25;;;;;11.08;69.13;102269.81;4959423;28;46717;-77
2023/01/03 02:18:58;;;;;;;;;11.75;11.75;;;;;11.26;69.52;102298.16;4965808;28;45908;-77
2023/01/03 02:22:00;;;;;;;;;8.00;8.00;;;;;11.24;69.48;102299.06;4956178;28;45500;-77
2023/01/03 02:24:40;;;;;;;;;11.25;11.25;;;;;11.24;69.59;102299.97;4960412;28;45409;-77
2023/01/03 02:27:18;;;;;;;;;9.25;7.25;;;;;11.24;69.20;102304.41;4943668;28;46280;-77
2023/01/03 02:30:20;;;;;;;;;10.00;10.00;;;;;11.20;69.26;102300.88;4957240;28;45918;-77
2023/01/03 02:32:49;;;;;;;;;15.00;10.00;;;;;11.16;69.52;102298.25;4942638;28;45298;-77
2023/01/03 02:35:42;;;;;;;;;12.75;10.50;;;;;10.94;69.56;102272.66;4942718;28;45520;-77
2023/01/03 02:38:22;;;;;;;;;13.25;8.00;;;;;11.06;69.41;102293.00;4950142;28;45707;-77
2023/01/03 02:41:10;;;;;;;;;8.00;8.00;;;;;11.12;69.47;102311.66;4945863;28;45514;-77
2023/01/03 02:43:45;;;;;;;;;12.75;9.00;;;;;11.07;69.35;102301.91;4942511;28;45302;-77
2023/01/03 02:46:20;;;;;;;;;10.25;9.50;;;;;11.13;69.80;102307.22;4948873;28;45326;-77
2023/01/03 02:48:45;;;;;;;;;8.00;7.00;;;;;11.15;69.80;102309.88;4961111;28;45447;-77
2023/01/03 02:51:34;;;;;;;;;10.75;10.25;;;;;11.13;69.89;102308.09;4957062;28;45492;-77
2023/01/03 02:54:02;;;;;;;;;8.75;7.75;;;;;10.84;69.42;102262.94;4959645;28;45569;-77
2023/01/03 02:56:43;;;;;;;;;10.00;10.00;;;;;11.05;69.60;102309.94;4951815;28;45519;-77
2023/01/03 02:59:14;;;;;;;;;7.00;5.25;;;;;10.76;69.42;102259.47;4957096;28;46987;-77
2023/01/03 03:01:43;;;;;;;;;7.75;7.75;;;;;10.88;69.29;102287.84;4941723;28;45702;-77
2023/01/03 03:04:11;;;;;;;;;5.50;5.00;;;;;10.74;69.58;102277.25;4948296;28;45409;-77
2023/01/03 03:06:42;;;;;;;;;7.75;7.75;;;;;10.96;69.64;102310.03;4947755;28;45477;-77
2023/01/03 03:09:07;;;;;;;;;7.00;5.25;;;;;10.76;70.04;102280.81;4947234;28;45476;-77
2023/01/03 03:14:36;;;;;;;;;13.50;9.50;;;;;10.77;70.17;102277.25;4945653;28;45469;-77
2023/01/03 03:17:14;;;;;;;;;7.50;7.50;;;;;10.68;69.85;102261.31;4960255;28;46222;-76
2023/01/03 03:25:34;;;;;;;;;7.25;7.25;;;;;10.75;70.18;102279.91;4957453;28;45667;-77
2023/01/03 03:30:57;;;;;;;;;5.75;5.25;;;;;10.83;69.78;102303.91;4951953;28;45483;-77
2023/01/03 03:33:26;;;;;;;;;7.00;7.00;;;;;10.68;70.22;102282.69;4951293;28;45272;-76
2023/01/03 03:35:59;;;;;;;;;7.00;4.25;;;;;10.82;70.39;102306.59;4944612;28;45346;-77
2023/01/03 03:38:38;;;;;;;;;5.50;4.75;;;;;10.67;70.28;102284.44;4961069;28;45409;-77
2023/01/03 03:46:58;;;;;;;;;8.75;7.00;;;;;10.67;70.34;102292.44;4954029;28;45452;-77
2023/01/03 03:49:37;;;;;;;;;5.00;4.25;;;;;10.78;70.19;102311.06;4954973;28;45417;-76
2023/01/03 03:52:08;;;;;;;;;5.00;5.00;;;;;10.64;70.32;102284.50;4960286;28;46433;-77
2023/01/03 03:54:37;;;;;;;;;5.00;4.75;;;;;10.57;70.14;102274.72;4946035;28;45618;-77
2023/01/03 03:57:19;;;;;;;;;5.75;5.75;;;;;10.75;69.84;102309.31;4946169;28;45369;-77
2023/01/03 03:59:53;;;;;;;;;5.75;5.00;;;;;10.55;70.27;102272.06;4955927;28;45505;-77
2023/01/03 04:02:21;;;;;;;;;7.50;6.00;;;;;10.65;70.44;102288.91;4940173;28;48189;-77
2023/01/03 04:04:51;;;;;;;;;5.25;5.25;;;;;10.57;70.88;102280.06;4947441;28;45447;-76
2023/01/03 04:07:16;;;;;;;;;5.00;5.00;;;;;10.57;70.55;102278.31;4947606;28;45357;-77
2023/01/03 04:09:42;;;;;;;;;7.00;7.00;;;;;10.60;70.64;102284.53;4959656;28;45894;-77
2023/01/03 04:12:07;;;;;;;;;8.00;8.00;;;;;10.66;70.67;102282.69;4959977;28;45605;-76
2023/01/03 04:14:32;;;;;;;;;8.75;6.25;;;;;10.68;70.62;102286.22;4946118;28;45460;-76
2023/01/03 04:16:58;;;;;;;;;7.50;7.50;;;;;10.77;70.64;102314.63;4941072;28;45298;-76
2023/01/03 04:19:23;;;;;;;;;5.00;5.00;;;;;10.67;70.76;102302.25;4941176;28;45746;-77
2023/01/03 04:21:48;;;;;;;;;6.25;6.25;;;;;10.46;70.65;102260.59;4940925;28;45349;-77
2023/01/03 04:24:14;;;;;;;;;4.75;4.75;;;;;10.54;71.28;102285.44;4953382;28;45466;-76
2023/01/03 04:26:39;;;;;;;;;4.00;4.00;;;;;10.71;71.27;102310.25;4939932;28;45780;-76
2023/01/03 04:29:05;;;;;;;;;5.00;4.75;;;;;10.60;71.23;102287.19;4956791;28;45474;-77
2023/01/03 04:31:30;;;;;;;;;5.50;5.50;;;;;10.58;71.29;102287.19;4939967;28;46284;-76
2023/01/03 04:33:55;;;;;;;;;5.75;4.00;;;;;10.62;71.10;102293.41;4950912;28;45321;-76
2023/01/03 04:36:21;;;;;;;;;7.25;3.75;;;;;10.61;71.14;102295.19;4947379;28;45321;-76
2023/01/03 04:38:46;;;;;;;;;6.00;4.25;;;;;10.79;71.15;102325.31;4960099;28;45336;-77
2023/01/03 04:41:12;;;;;;;;;5.00;3.50;;;;;10.74;71.36;102318.22;4940636;28;46364;-77
2023/01/03 04:46:21;;;;;;;;;6.00;5.75;;;;;10.57;71.41;102286.31;4940610;28;45506;-77
2023/01/03 04:48:47;;;;;;;;;4.00;3.75;;;;;10.78;71.28;102326.22;4954994;28;45455;-76
2023/01/03 04:51:13;;;;;;;;;4.50;4.50;;;;;10.75;71.32;102308.44;4957678;28;45898;-77
2023/01/03 04:53:38;;;;;;;;;9.00;5.50;;;;;10.72;71.42;102308.44;4947470;28;45390;-76
2023/01/03 04:56:04;;;;;;;;;4.75;4.00;;;;;10.72;71.50;102309.31;4955704;28;45352;-76
2023/01/03 04:58:29;;;;;;;;;5.50;4.50;;;;;10.92;71.62;102343.00;4940544;28;45255;-76
2023/01/03 05:01:02;;;;;;;;;7.00;4.50;;;;;10.82;71.80;102325.28;4940062;28;45479;-76
2023/01/03 05:03:28;;;;;;;;;9.00;6.75;;;;;10.68;71.79;102317.41;4958742;28;45305;-76
2023/01/03 05:06:02;;;;;;;;;5.50;5.50;;;;;10.75;71.94;102327.13;4940768;28;45308;-77
2023/01/03 05:08:27;;;;;;;;;4.50;4.50;;;;;10.84;71.98;102342.19;4939118;28;45631;-76
2023/01/03 05:10:52;;;;;;;;;8.00;5.00;;;;;10.91;71.61;102346.59;4949139;28;45887;-76
2023/01/03 05:13:18;;;;;;;;;8.25;5.00;;;;;10.92;71.77;102354.56;4940815;28;45480;-76
2023/01/03 05:15:44;;;;;;;;;6.75;4.50;;;;;10.75;71.48;102325.31;4940374;28;45303;-76
2023/01/03 05:18:09;;;;;;;;;9.25;6.25;;;;;10.94;71.54;102357.22;4955020;28;45306;-76
2023/01/03 05:26:16;;;;;;;;;4.75;4.25;;;;;10.80;71.47;102327.97;4946831;28;45374;-76
2023/01/03 05:28:45;;;;;;;;;6.25;6.25;;;;;11.06;71.33;102366.94;4959703;28;45339;-76
2023/01/03 05:31:11;;;;;;;;;10.50;8.25;;;;;10.89;71.87;102353.72;4941865;28;46312;-76
2023/01/03 05:33:38;;;;;;;;;5.25;4.75;;;;;10.89;71.68;102340.34;4947326;28;45381;-76
2023/01/03 05:36:04;;;;;;;;;4.00;4.00;;;;;11.01;71.40;102376.78;4955088;28;45534;-76
2023/01/03 05:38:29;;;;;;;;;9.25;8.25;;;;;11.07;71.50;102377.63;4955086;28;45517;-76
2023/01/03 05:40:54;;;;;;;;;4.00;4.00;;;;;11.10;71.94;102368.69;4944170;28;46202;-77
2023/01/03 05:43:20;;;;;;;;;4.00;3.50;;;;;11.06;71.72;102366.94;4949059;28;45330;-76
2023/01/03 05:45:50;;;;;;;;;3.75;3.75;;;;;10.91;71.28;102342.13;4943191;28;45341;-76
2023/01/03 05:48:15;;;;;;;;;6.50;6.00;;;;;10.84;71.29;102336.84;4953892;28;45396;-76
2023/01/03 05:50:41;;;;;;;;;8.25;6.50;;;;;10.83;71.70;102332.41;4961712;28;46343;-76
2023/01/03 05:53:06;;;;;;;;;8.25;6.25;;;;;10.93;71.64;102347.47;4959513;28;45500;-77
2023/01/03 05:55:32;;;;;;;;;9.25;6.00;;;;;10.72;71.33;102306.66;4947371;28;45755;-76
2023/01/03 05:57:57;;;;;;;;;6.75;5.00;;;;;10.70;71.19;102316.47;4952014;28;45474;-76
2023/01/03 06:00:22;;;;;;;;;6.50;6.00;;;;;10.84;71.21;102337.75;4959757;28;45473;-77
2023/01/03 06:02:48;;;;;;;;;8.25;8.00;;;;;11.07;71.41;102374.94;4960306;28;45608;-76
2023/01/03 06:05:13;;;;;;;;;10.75;8.00;;;;;10.82;71.19;102327.97;4956179;28;46037;-76
2023/01/03 06:07:38;;;;;;;;;6.00;3.00;;;;;10.73;71.22;102312.91;4952212;28;45247;-76
2023/01/03 06:10:05;;;;;;;;;7.75;5.75;;;;;10.78;71.09;102326.22;4958685;28;45251;-75
2023/01/03 06:12:30;;;;;;;;;4.00;4.00;;;;;10.83;71.39;102351.13;4951243;28;46040;-76
2023/01/03 06:14:56;;;;;;;;;7.25;4.75;;;;;10.87;71.61;102351.06;4962198;28;45485;-75
2023/01/03 06:20:06;;;;;;;;;8.00;7.75;;;;;10.81;71.21;102361.81;4949012;28;45494;-76
2023/01/03 06:22:31;;;;;;;;;9.25;7.50;;;;;10.60;71.11;102317.44;4944414;28;45559;-75
2023/01/03 06:24:57;;;;;;;;;5.00;4.00;;;;;10.94;71.06;102378.59;4957788;28;45331;-76
2023/01/03 06:27:22;;;;;;;;;6.00;5.00;;;;;10.68;71.42;102344.97;4942735;28;45406;-76
2023/01/03 06:29:47;;;;;;;;;5.00;5.00;;;;;10.65;71.03;102346.78;4942428;28;45281;-75
2023/01/03 06:32:13;;;;;;;;;5.25;5.00;;;;;10.65;71.44;102346.78;4947355;28;45571;-75
2023/01/03 06:34:38;;;;;;;;;6.25;6.25;;;;;10.68;71.18;102370.81;4959790;28;45416;-76
2023/01/03 06:37:03;;;;;;;;;6.00;5.00;;;;;10.85;71.61;102390.25;4962087;28;45676;-76
2023/01/03 06:39:29;;;;;;;;;8.00;5.25;;;;;10.84;71.23;102393.84;4955616;28;47376;-75
2023/01/03 06:41:54;;;;;;;;;3.50;3.50;;;;;10.66;71.40;102359.22;4945462;28;45833;-75
2023/01/03 06:44:19;;;;;;;;;4.00;3.75;;;;;10.86;71.09;102391.13;4944003;28;45585;-76
2023/01/03 06:55:14;;;;;;;;;5.00;5.00;;;;;10.63;71.34;102370.84;4943595;28;45428;-76
2023/01/03 06:57:39;;;;;;;;;5.50;4.00;;;;;10.65;71.07;102384.19;4942498;28;45234;-76
2023/01/03 07:48:15;;;;;;;;;9.25;5.75;;;;;10.85;71.77;102456.16;4962945;28;45414;-77
2023/01/03 07:50:41;;;;;;;;;6.00;5.00;;;;;10.77;72.19;102441.97;4970025;28;45632;-79
2023/01/03 07:53:07;;;;;;;;;5.00;5.00;;;;;10.57;71.96;102414.50;4959803;28;45402;-77
2023/01/03 07:55:34;;;;;;;;;3.00;2.00;;;;;10.54;71.69;102410.94;4959318;28;45435;-77
2023/01/03 07:57:59;;;;;;;;;7.00;5.50;;;;;10.48;71.38;102409.19;4956823;28;45533;-78
2023/01/03 08:00:25;;;;;;;;;5.25;3.50;;;;;10.54;72.03;102433.19;4953623;28;45481;-78
2023/01/03 08:02:52;;;;;;;;;9.25;6.50;;;;;10.78;71.82;102466.00;4955220;28;45990;-78
2023/01/03 08:05:18;;;;;;;;;7.50;4.75;;;;;10.78;72.29;102470.47;4956533;28;45455;-75
2023/01/03 08:07:43;;;;;;;;;8.00;5.00;;;;;10.70;71.81;102451.81;4957145;28;45592;-77
2023/01/03 08:15:36;;;;;;;;;9.00;6.50;;;;;10.67;72.35;102473.19;4966051;28;45430;-79
2023/01/03 08:18:02;;;;;;;;;13.00;9.75;;;;;10.44;72.40;102430.56;4957473;28;45460;-80
2023/01/03 08:20:28;;;;;;;;;14.75;10.00;;;;;10.63;72.13;102464.28;4957761;28;45512;-76
2023/01/03 08:22:53;;;;;;;;;10.00;9.25;;;;;10.74;72.42;102488.25;4948834;28;45500;-76
2023/01/03 08:25:19;;;;;;;;;15.50;11.25;;;;;10.52;72.26;102444.75;4959006;28;45335;-76
2023/01/03 08:27:44;;;;;;;;;11.25;10.50;;;;;10.57;72.57;102457.22;4958617;28;45530;-76
2023/01/03 08:30:12;;;;;;;;;12.75;10.50;;;;;10.63;72.00;102455.41;4959590;28;45522;-75
2023/01/03 08:32:38;;;;;;;;;12.50;10.75;;;;;10.75;72.25;102474.91;4953197;28;47770;-76
2023/01/03 08:35:04;;;;;;;;;11.50;10.00;;;;;10.77;71.91;102479.38;4955681;28;45508;-74
2023/01/03 08:37:30;;;;;;;;;9.50;9.50;;;;;10.49;72.50;102423.41;4949539;28;45432;-74
2023/01/03 08:40:01;;;;;;;;;12.00;12.00;;;;;10.71;71.92;102472.28;4951640;28;45471;-76
2023/01/03 08:42:27;;;;;;;;;15.50;10.25;;;;;10.73;72.18;102479.38;4956359;28;46210;-74
2023/01/03 08:44:59;;;;;;;;;10.50;9.00;;;;;10.78;72.18;102490.03;4957343;28;45481;-74
2023/01/03 08:47:25;;;;;;;;;9.25;9.25;;;;;10.59;72.13;102459.84;4954557;28;45434;-75
2023/01/03 08:49:50;;;;;;;;;12.50;10.25;;;;;10.59;71.79;102464.31;4957194;28;45507;-75
2023/01/03 08:52:16;;;;;;;;;9.00;8.25;;;;;10.64;72.19;102466.09;4958305;28;45858;-75
2023/01/03 08:54:42;;;;;;;;;9.00;8.00;;;;;10.85;72.09;102505.13;4957626;28;45653;-75
2023/01/03 08:57:08;;;;;;;;;9.25;7.75;;;;;10.88;72.45;102504.25;4957811;28;45648;-75
2023/01/03 08:59:33;;;;;;;;;8.00;8.00;;;;;10.83;72.07;102496.25;4957727;28;45490;-76
2023/01/03 09:02:00;;;;;;;;;9.75;8.50;;;;;10.44;72.29;102426.13;4959638;28;46109;-75
2023/01/03 09:04:25;;;;;;;;;8.75;8.75;;;;;10.53;71.59;102449.22;4968531;28;45582;-74
2023/01/03 09:06:51;;;;;;;;;10.25;9.00;;;;;10.69;71.97;102491.00;4952751;28;45384;-74
2023/01/03 09:09:16;;;;;;;;;9.75;8.25;;;;;10.72;72.06;102501.63;4971866;28;45564;-75
2023/01/03 09:11:41;;;;;;;;;11.00;10.00;;;;;10.74;72.31;102504.28;4959364;28;47873;-74
2023/01/03 09:14:07;;;;;;;;;11.25;7.75;;;;;10.72;71.99;102509.63;4957182;28;45656;-75
2023/01/03 09:16:32;;;;;;;;;11.25;11.00;;;;;10.45;71.81;102467.06;4962408;28;45309;-75
2023/01/03 09:18:58;;;;;;;;;5.75;5.75;;;;;10.74;71.67;102507.88;4960073;28;45378;-75
2023/01/03 09:21:24;;;;;;;;;7.00;7.00;;;;;10.61;72.08;102502.56;4960154;28;45531;-75
2023/01/03 09:23:50;;;;;;;;;9.00;9.00;;;;;10.69;72.28;102515.03;4959750;28;45377;-74
2023/01/03 09:26:15;;;;;;;;;9.00;8.00;;;;;10.50;72.22;102479.47;4960089;28;45416;-75
2023/01/03 09:28:41;;;;;;;;;11.25;9.50;;;;;10.64;71.83;102503.47;4961738;28;45412;-75
2023/01/03 09:31:06;;;;;;;;;9.25;8.25;;;;;10.73;71.75;102519.44;4954468;28;45519;-75
2023/01/03 09:33:32;;;;;;;;;4.25;4.00;;;;;10.71;72.15;102515.03;4957151;28;45710;-75
2023/01/03 09:35:59;;;;;;;;;6.00;6.00;;;;;10.54;71.75;102481.25;4939989;28;45949;-75
2023/01/03 09:38:25;;;;;;;;;5.75;5.75;;;;;10.72;71.69;102506.97;4956779;28;45564;-78
2023/01/03 09:41:10;;;;;;;;;8.00;6.00;;;;;10.54;71.42;102491.94;4966942;28;46202;-79
2023/01/03 09:43:49;;;;;;;;;4.50;4.00;;;;;10.52;71.66;102483.06;4959792;28;45511;-79
2023/01/03 09:46:18;;;;;;;;;5.00;5.00;;;;;10.67;71.87;102521.25;4973708;28;45739;-79
2023/01/03 09:48:45;;;;;;;;;8.50;5.50;;;;;10.60;72.54;102514.16;4965968;28;45475;-78
2023/01/03 10:05:59;;;;;;;;;9.75;7.75;;;;;10.72;71.94;102523.00;4957291;28;45502;-79
2023/01/03 10:08:42;;;;;;;;;9.75;5.50;;;;;10.75;72.31;102531.00;4960692;28;45524;-78
2023/01/03 10:11:12;;;;;;;;;14.25;11.00;;;;;10.54;72.24;102497.28;4963451;28;45300;-78
2023/01/03 10:14:03;;;;;;;;;8.75;7.75;;;;;10.66;71.77;102515.03;4960763;28;45501;-78
2023/01/03 10:16:39;;;;;;;;;11.00;9.00;;;;;10.72;71.43;102514.09;4961067;28;45649;-78
2023/01/03 10:19:38;;;;;;;;;5.75;5.25;;;;;10.64;71.57;102514.16;4959918;28;45321;-78
2023/01/03 10:22:11;;;;;;;;;7.00;6.25;;;;;10.57;71.84;102502.63;4960316;28;45554;-79
2023/01/03 10:24:46;;;;;;;;;7.00;5.00;;;;;10.70;72.09;102532.81;4960682;28;46465;-78
2023/01/03 10:27:24;;;;;;;;;4.00;4.00;;;;;10.73;71.65;102526.56;4950861;28;45454;-78
2023/01/03 10:29:54;;;;;;;;;5.50;5.25;;;;;10.67;71.28;102524.81;4959711;28;45412;-78
2023/01/03 10:32:19;;;;;;;;;3.25;2.25;;;;;10.80;71.46;102551.47;4959192;28;46155;-78
2023/01/03 10:35:03;;;;;;;;;5.50;4.50;;;;;10.73;71.76;102546.16;4960393;28;45337;-78
2023/01/03 10:37:28;;;;;;;;;4.75;4.75;;;;;10.77;71.37;102551.50;4954274;28;45340;-72
2023/01/03 10:40:02;;;;;;;;;5.00;5.00;;;;;10.63;72.05;102530.19;4958723;28;45388;-79
2023/01/03 10:42:32;;;;;;;;;8.25;7.50;;;;;10.59;71.67;102518.59;4961832;28;45471;-78
2023/01/03 10:45:21;;;;;;;;;6.00;4.75;;;;;10.81;71.89;102551.47;4962779;28;47407;-79
2023/01/03 10:48:12;;;;;;;;;7.25;6.50;;;;;10.64;71.89;102515.91;4955828;28;45614;-78
2023/01/03 10:50:37;;;;;;;;;8.75;8.50;;;;;10.63;72.22;102514.16;4960191;28;45357;-77
2023/01/03 10:53:08;;;;;;;;;8.50;7.25;;;;;10.83;71.85;102540.78;4956513;28;45504;-65
2023/01/03 10:55:42;;;;;;;;;10.00;9.00;;;;;10.68;71.77;102515.91;4956174;28;47025;-64
2023/01/03 10:58:26;;;;;;;;;6.25;6.25;;;;;10.74;71.75;102525.66;4952268;28;46033;-64
2023/01/03 11:00:53;;;;;;;;;10.00;8.00;;;;;10.77;71.79;102539.00;4962877;28;45504;-64
2023/01/03 11:03:25;;;;;;;;;12.00;10.75;;;;;10.55;72.12;102492.81;4956101;28;45891;-64
2023/01/03 11:05:56;;;;;;;;;8.00;8.00;;;;;10.78;72.17;102534.56;4956288;28;47064;-64
2023/01/03 11:08:36;;;;;;;;;9.00;7.50;;;;;10.79;72.24;102542.56;4957364;28;45503;-65
2023/01/03 11:11:02;;;;;;;;;9.75;8.25;;;;;10.73;72.40;102521.22;4962339;28;45593;-64
2023/01/03 11:13:37;;;;;;;;;8.75;8.75;;;;;10.83;72.32;102538.13;4958461;28;45517;-64
2023/01/03 11:16:12;;;;;;;;;8.25;7.50;;;;;10.82;71.78;102533.66;4958933;28;45521;-64
2023/01/03 11:18:40;;;;;;;;;7.00;7.00;;;;;10.75;72.30;102527.44;4946843;28;45457;-64
2023/01/03 11:21:25;;;;;;;;;9.50;9.00;;;;;10.84;71.89;102529.19;4958532;28;45470;-64
2023/01/03 11:24:32;;;;;;;;;13.75;10.00;;;;;10.86;71.62;102530.06;4958033;28;45445;-64
2023/01/03 11:27:01;;;;;;;;;7.50;5.75;;;;;10.87;71.93;102514.03;4947543;28;46302;-65
2023/01/03 11:29:48;;;;;;;;;8.00;8.00;;;;;10.86;72.07;102506.00;4957624;28;45506;-64
2023/01/03 11:32:27;;;;;;;;;6.75;5.75;;;;;10.86;72.41;102512.25;4958804;28;45344;-64
2023/01/03 11:35:11;;;;;;;;;7.50;7.50;;;;;10.89;72.27;102517.59;4949066;28;45527;-64
2023/01/03 11:37:43;;;;;;;;;6.50;6.25;;;;;10.92;72.01;102503.31;4959597;28;45420;-65
2023/01/03 11:40:34;;;;;;;;;12.00;8.00;;;;;10.94;72.22;102505.09;4957066;28;45652;-65
2023/01/03 11:43:21;;;;;;;;;10.50;8.25;;;;;10.92;72.35;102504.19;4946548;28;45482;-64
2023/01/03 11:46:13;;;;;;;;;12.25;8.00;;;;;10.91;72.64;102501.56;4958638;28;45340;-65
2023/01/03 11:49:00;;;;;;;;;9.00;6.50;;;;;10.89;72.10;102506.00;4952757;28;45495;-64
2023/01/03 11:51:43;;;;;;;;;7.00;5.00;;;;;10.79;72.42;102493.59;4959616;28;45334;-64
2023/01/03 11:54:50;;;;;;;;;4.75;4.75;;;;;10.84;72.57;102507.81;4959556;28;45488;-64
2023/01/03 11:57:34;;;;;;;;;5.00;5.00;;;;;10.83;72.51;102498.91;4940294;28;46317;-65
2023/01/03 12:00:33;;;;;;;;;9.25;5.75;;;;;10.93;72.50;102510.44;4959509;28;45586;-64
2023/01/03 12:03:07;;;;;;;;;6.50;3.75;;;;;10.89;72.26;102487.28;4951711;28;45625;-65
2023/01/03 12:05:47;;;;;;;;;6.00;6.00;;;;;10.97;72.40;102496.16;4958551;28;45262;-64
2023/01/03 12:08:25;;;;;;;;;5.75;4.00;;;;;11.00;72.60;102487.25;4957411;28;45581;-65
2023/01/03 12:11:22;;;;;;;;;7.50;5.50;;;;;11.03;72.32;102495.25;4973200;28;48509;-65
2023/01/03 12:14:17;;;;;;;;;8.00;5.25;;;;;11.03;72.23;102479.22;4952455;28;45342;-65
2023/01/03 12:16:54;;;;;;;;;11.00;10.00;;;;;10.98;72.31;102470.34;4957148;28;45590;-65
2023/01/03 12:19:35;;;;;;;;;6.50;5.00;;;;;11.04;72.48;102479.22;4958738;28;45489;-65
2023/01/03 12:22:17;;;;;;;;;5.50;3.75;;;;;11.06;72.44;102479.16;4954657;28;47019;-65
2023/01/03 12:25:16;;;;;;;;;4.00;3.25;;;;;11.05;72.68;102475.63;4959537;28;45410;-65
2023/01/03 12:27:53;;;;;;;;;8.25;4.00;;;;;11.06;72.60;102466.72;4958372;28;45526;-65
2023/01/03 12:30:44;;;;;;;;;3.75;3.25;;;;;11.06;72.34;102465.81;4956497;28;45349;-65
2023/01/03 12:33:31;;;;;;;;;4.75;3.75;;;;;11.13;72.23;102484.47;4954872;28;46290;-66
2023/01/03 12:36:26;;;;;;;;;5.50;3.75;;;;;11.00;72.07;102449.84;4950191;28;45785;-66
2023/01/03 12:39:13;;;;;;;;;7.25;7.25;;;;;11.20;72.38;102485.31;4948567;28;45536;-66
2023/01/03 12:41:49;;;;;;;;;6.25;4.00;;;;;11.09;72.00;102456.00;4957251;28;45358;-66
2023/01/03 12:44:32;;;;;;;;;5.25;5.00;;;;;11.15;72.14;102462.22;4939303;28;48273;-66
2023/01/03 12:46:59;;;;;;;;;4.25;2.50;;;;;11.10;72.33;102446.19;4953981;28;45432;-66
2023/01/03 12:49:34;;;;;;;;;8.25;3.75;;;;;11.23;72.19;102460.38;4973369;28;45297;-65
2023/01/03 12:51:59;;;;;;;;;5.25;4.00;;;;;11.10;72.24;102433.72;4959702;28;45516;-65
2023/01/03 12:54:42;;;;;;;;;4.75;3.00;;;;;11.14;72.34;102442.59;4956566;28;47304;-66
2023/01/03 12:57:22;;;;;;;;;8.75;3.00;;;;;11.27;72.43;102460.31;4953488;28;45857;-64
2023/01/03 12:59:50;;;;;;;;;4.00;3.00;;;;;11.30;72.21;102454.94;4951064;28;45839;-65
2023/01/03 13:02:54;;;;;;;;;4.50;4.00;;;;;11.35;72.40;102456.72;4954151;28;45519;-65
2023/01/03 13:05:31;;;;;;;;;4.00;2.50;;;;;11.30;72.30;102435.34;4947950;28;46258;-66
2023/01/03 13:08:13;;;;;;;;;3.00;1.75;;;;;11.15;72.27;102403.41;4937405;28;45659;-66
2023/01/03 13:10:45;;;;;;;;;2.00;2.00;;;;;11.19;72.20;102405.16;4952995;28;45675;-65
2023/01/03 13:13:20;;;;;;;;;7.75;5.00;;;;;11.23;72.58;102399.75;4942535;28;46160;-66
2023/01/03 13:15:46;;;;;;;;;0.00;0.00;;;;;11.42;72.13;102415.66;4947191;28;47348;-65
2023/01/03 13:18:21;;;;;;;;;5.00;4.00;;;;;11.47;72.22;102427.19;4952529;28;45710;-66
2023/01/03 13:20:53;;;;;;;;;3.25;2.00;;;;;11.40;72.16;102418.31;4953528;28;45563;-66
2023/01/03 13:23:32;;;;;;;;;2.75;1.50;;;;;11.30;72.08;102392.56;4953807;28;45532;-65
2023/01/03 13:26:04;;;;;;;;;4.25;3.00;;;;;11.47;72.16;102430.72;4952636;28;47151;-65
2023/01/03 13:28:32;;;;;;;;;3.00;3.00;;;;;11.28;72.24;102386.38;4954558;28;45695;-65
2023/01/03 13:31:34;;;;;;;;;2.00;2.00;;;;;11.52;72.28;102419.13;4952121;28;45520;-65